createdAt,value
2023-01-20T00:01:12.161Z,95541.09
2023-01-20T00:03:40.992Z,95551.59
2023-01-20T00:06:10.064Z,95549.94
2023-01-20T00:08:39.089Z,95557.63
2023-01-20T00:11:08.176Z,95559.19
2023-01-20T00:13:38.294Z,95556.78
2023-01-20T00:16:08.844Z,95554.50
2023-01-20T00:18:37.430Z,95547.00
2023-01-20T00:21:06.505Z,95559.03
2023-01-20T00:23:34.999Z,95558.31
2023-01-20T00:26:06.469Z,95558.31
2023-01-20T00:28:35.329Z,95561.00
2023-01-20T00:31:16.190Z,95571.78
2023-01-20T00:33:45.139Z,95578.59
2023-01-20T00:36:14.306Z,95569.56
2023-01-20T00:38:42.615Z,95569.84
2023-01-20T00:41:11.213Z,95568.50
2023-01-20T00:43:39.612Z,95578.88
2023-01-20T00:46:08.442Z,95570.63
2023-01-20T00:48:38.469Z,95576.09
2023-01-20T00:51:07.893Z,95577.56
2023-01-20T00:53:36.735Z,95587.28
2023-01-20T00:56:05.601Z,95585.44
2023-01-20T00:58:34.084Z,95582.03
2023-01-20T01:01:02.596Z,95589.38
2023-01-20T01:03:31.425Z,95588.78
2023-01-20T01:06:12.511Z,95584.66
2023-01-20T01:08:41.071Z,95591.94
2023-01-20T01:11:09.632Z,95587.28
2023-01-20T01:13:38.519Z,95596.41
2023-01-20T01:16:11.706Z,95594.03
2023-01-20T01:18:40.217Z,95601.41
2023-01-20T01:21:10.727Z,95596.28
2023-01-20T01:23:39.257Z,95604.59
2023-01-20T01:26:07.571Z,95606.41
2023-01-20T01:28:35.888Z,95608.53
2023-01-20T01:31:05.532Z,95612.59
2023-01-20T01:33:34.425Z,95609.56
2023-01-20T01:36:03.798Z,95606.59
2023-01-20T01:38:33.712Z,95612.75
2023-01-20T01:41:02.119Z,95609.91
2023-01-20T01:43:32.703Z,95613.34
2023-01-20T01:46:00.849Z,95601.31
2023-01-20T01:48:31.022Z,95605.19
2023-01-20T01:51:04.460Z,95603.53
2023-01-20T01:53:39.905Z,95604.63
2023-01-20T01:56:08.680Z,95618.03
2023-01-20T01:58:38.783Z,95605.09
2023-01-20T02:01:07.258Z,95606.81
2023-01-20T02:03:41.526Z,95613.25
2023-01-20T02:06:11.396Z,95611.16
2023-01-20T02:08:41.282Z,95614.13
2023-01-20T02:11:09.664Z,95613.50
2023-01-20T02:13:37.987Z,95614.78
2023-01-20T02:16:12.637Z,95613.31
2023-01-20T02:18:50.231Z,95615.03
2023-01-20T02:21:46.336Z,95620.28
2023-01-20T02:24:31.740Z,95623.13
2023-01-20T02:27:07.763Z,95620.97
2023-01-20T02:30:12.689Z,95624.38
2023-01-20T02:32:49.704Z,95621.09
2023-01-20T02:35:23.750Z,95627.69
2023-01-20T02:37:58.065Z,95633.91
2023-01-20T02:40:32.905Z,95625.91
2023-01-20T02:43:07.122Z,95631.56
2023-01-20T02:45:40.850Z,95628.97
2023-01-20T02:48:15.938Z,95631.31
2023-01-20T02:50:48.174Z,95640.28
2023-01-20T02:53:18.097Z,95634.47
2023-01-20T02:55:48.890Z,95637.63
2023-01-20T02:58:20.953Z,95638.72
2023-01-20T03:00:52.101Z,95639.53
2023-01-20T03:03:25.551Z,95641.88
2023-01-20T03:05:56.214Z,95639.28
2023-01-20T03:08:27.754Z,95639.69
2023-01-20T03:10:59.321Z,95643.03
2023-01-20T03:13:32.092Z,95657.34
2023-01-20T03:16:03.357Z,95655.34
2023-01-20T03:18:33.978Z,95653.03
2023-01-20T03:21:02.784Z,95659.44
2023-01-20T03:23:33.557Z,95668.22
2023-01-20T03:26:02.240Z,95678.31
2023-01-20T03:28:30.537Z,95683.25
2023-01-20T03:30:59.616Z,95685.41
2023-01-20T03:33:28.137Z,95682.72
2023-01-20T03:35:57.935Z,95684.66
2023-01-20T03:38:26.311Z,95672.06
2023-01-20T03:41:00.323Z,95685.84
2023-01-20T03:43:32.025Z,95681.72
2023-01-20T03:46:04.363Z,95687.47
2023-01-20T03:48:36.407Z,95686.13
2023-01-20T03:51:11.576Z,95693.25
2023-01-20T03:53:45.485Z,95687.47
2023-01-20T03:56:18.186Z,95692.91
2023-01-20T03:58:48.801Z,95696.91
2023-01-20T04:01:18.432Z,95693.56
2023-01-20T04:03:49.287Z,95698.84
2023-01-20T04:06:20.940Z,95707.47
2023-01-20T04:08:55.701Z,95705.50
2023-01-20T04:11:26.146Z,95705.56
2023-01-20T04:13:54.576Z,95703.78
2023-01-20T04:16:23.482Z,95713.06
2023-01-20T04:18:52.571Z,95697.28
2023-01-20T04:21:25.609Z,95700.78
2023-01-20T04:23:57.244Z,95703.00
2023-01-20T04:26:25.520Z,95711.09
2023-01-20T04:28:53.841Z,95713.00
2023-01-20T04:31:30.684Z,95716.19
2023-01-20T04:33:59.558Z,95710.91
2023-01-20T04:36:29.381Z,95722.78
2023-01-20T04:38:57.971Z,95721.56
2023-01-20T04:41:26.327Z,95721.97
2023-01-20T04:43:54.650Z,95727.38
2023-01-20T04:46:23.466Z,95738.13
2023-01-20T04:48:51.797Z,95737.09
2023-01-20T04:51:20.453Z,95735.28
2023-01-20T04:53:50.121Z,95742.31
2023-01-20T04:56:18.558Z,95741.03
2023-01-20T04:58:49.071Z,95742.38
2023-01-20T05:01:17.272Z,95742.69
2023-01-20T05:03:45.782Z,95748.91
2023-01-20T05:06:14.377Z,95764.81
2023-01-20T05:08:42.710Z,95757.41
2023-01-20T05:11:12.457Z,95759.47
2023-01-20T05:13:40.750Z,95762.78
2023-01-20T05:16:09.968Z,95765.34
2023-01-20T05:18:38.644Z,95770.72
2023-01-20T05:21:08.810Z,95772.00
2023-01-20T05:23:37.192Z,95773.22
2023-01-20T05:26:05.777Z,95782.25
2023-01-20T05:28:35.451Z,95781.72
2023-01-20T05:31:03.941Z,95780.47
2023-01-20T05:33:32.406Z,95783.75
2023-01-20T05:36:00.751Z,95786.53
2023-01-20T05:38:29.047Z,95791.16
2023-01-20T05:41:00.917Z,95795.63
2023-01-20T05:43:29.276Z,95790.97
2023-01-20T05:45:59.131Z,95796.56
2023-01-20T05:48:27.687Z,95795.84
2023-01-20T05:50:56.133Z,95801.38
2023-01-20T05:53:24.562Z,95806.00
2023-01-20T05:56:00.253Z,95807.72
2023-01-20T05:58:28.952Z,95812.84
2023-01-20T06:01:05.331Z,95815.81
2023-01-20T06:03:33.774Z,95818.38
2023-01-20T06:06:02.191Z,95821.94
2023-01-20T06:08:30.562Z,95821.91
2023-01-20T06:10:59.126Z,95819.91
2023-01-20T06:13:27.618Z,95830.28
2023-01-20T06:15:58.092Z,95825.06
2023-01-20T06:18:26.223Z,95823.28
2023-01-20T06:20:58.073Z,95819.69
2023-01-20T06:23:26.539Z,95825.97
2023-01-20T06:26:00.242Z,95828.44
2023-01-20T06:28:28.830Z,95834.78
2023-01-20T06:31:02.736Z,95835.16
2023-01-20T06:33:31.496Z,95835.47
2023-01-20T06:35:59.880Z,95834.22
2023-01-20T06:38:31.035Z,95839.47
2023-01-20T06:41:00.103Z,95838.78
2023-01-20T06:43:30.082Z,95845.81
2023-01-20T06:46:03.334Z,95854.88
2023-01-20T06:48:32.137Z,95856.34
2023-01-20T06:51:04.205Z,95857.88
2023-01-20T06:53:32.752Z,95858.88
2023-01-20T06:56:02.021Z,95863.34
2023-01-20T06:58:31.604Z,95869.72
2023-01-20T07:01:07.252Z,95870.44
2023-01-20T07:03:35.695Z,95869.72
2023-01-20T07:06:05.310Z,95870.41
2023-01-20T07:08:33.583Z,95879.97
2023-01-20T07:11:01.843Z,95884.22
2023-01-20T07:13:30.089Z,95884.84
2023-01-20T07:15:58.391Z,95889.28
2023-01-20T07:18:27.984Z,95902.69
2023-01-20T07:20:56.739Z,95909.94
2023-01-20T07:23:25.553Z,95910.72
2023-01-20T07:26:00.080Z,95904.41
2023-01-20T07:28:28.526Z,95913.09
2023-01-20T07:30:56.957Z,95910.03
2023-01-20T07:33:25.327Z,95921.19
2023-01-20T07:35:55.164Z,95908.25
2023-01-20T07:38:23.469Z,95913.72
2023-01-20T07:40:51.863Z,95924.00
2023-01-20T07:43:20.278Z,95916.91
2023-01-20T07:45:48.598Z,95931.97
2023-01-20T07:48:16.870Z,95938.91
2023-01-20T07:50:47.880Z,95941.25
2023-01-20T07:53:17.509Z,95940.25
2023-01-20T07:55:45.780Z,95945.47
2023-01-20T07:58:14.053Z,95951.75
2023-01-20T08:00:42.310Z,95950.88
2023-01-20T08:03:10.624Z,95953.69
2023-01-20T08:05:39.166Z,95954.09
2023-01-20T08:08:07.468Z,95961.44
2023-01-20T08:10:37.228Z,95965.19
2023-01-20T08:13:05.886Z,95966.56
2023-01-20T08:15:34.164Z,95967.41
2023-01-20T08:18:02.487Z,95972.09
2023-01-20T08:20:30.727Z,95983.09
2023-01-20T08:22:58.992Z,95982.72
2023-01-20T08:25:27.243Z,95983.31
2023-01-20T08:27:56.919Z,95992.09
2023-01-20T08:30:25.247Z,95983.75
2023-01-20T08:32:53.608Z,95986.56
2023-01-20T08:35:21.911Z,95987.47
2023-01-20T08:37:50.208Z,95988.97
2023-01-20T08:40:18.685Z,95993.59
2023-01-20T08:42:47.219Z,95987.88
2023-01-20T08:45:17.338Z,95994.19
2023-01-20T08:47:46.215Z,95994.31
2023-01-20T08:50:15.814Z,95996.59
2023-01-20T08:52:44.131Z,96007.09
2023-01-20T08:55:13.536Z,96009.56
2023-01-20T08:57:41.964Z,96005.03
2023-01-20T09:00:11.704Z,96003.63
2023-01-20T09:02:42.024Z,96016.91
2023-01-20T09:05:11.172Z,96024.53
2023-01-20T09:07:39.438Z,96028.59
2023-01-20T09:10:08.764Z,96028.41
2023-01-20T09:12:37.657Z,96023.44
2023-01-20T09:15:07.629Z,96031.13
2023-01-20T09:17:36.122Z,96037.06
2023-01-20T09:20:06.646Z,96038.41
2023-01-20T09:22:35.021Z,96037.16
2023-01-20T09:25:03.477Z,96037.03
2023-01-20T09:27:31.771Z,96036.50
2023-01-20T09:30:00.132Z,96051.59
2023-01-20T09:32:28.435Z,96050.50
2023-01-20T09:34:57.031Z,96052.75
2023-01-20T09:37:44.254Z,96058.69
2023-01-20T09:40:32.289Z,96054.84
2023-01-20T09:43:24.848Z,96064.78
2023-01-20T09:45:56.324Z,96065.28
2023-01-20T09:48:49.842Z,96065.34
2023-01-20T09:51:39.460Z,96074.38
2023-01-20T09:54:15.694Z,96077.09
2023-01-20T09:56:48.437Z,96065.88
2023-01-20T09:59:21.917Z,96072.97
2023-01-20T10:01:52.793Z,96067.22
2023-01-20T10:04:25.960Z,96064.91
2023-01-20T10:06:56.460Z,96071.88
2023-01-20T10:09:32.761Z,96068.81
2023-01-20T10:12:08.631Z,96068.88
2023-01-20T10:14:39.648Z,96071.66
2023-01-20T10:17:11.407Z,96080.78
2023-01-20T10:19:44.816Z,96075.56
2023-01-20T10:22:17.118Z,96073.94
2023-01-20T10:24:55.516Z,96074.06
2023-01-20T10:27:25.682Z,96065.44
2023-01-20T10:29:56.466Z,96079.69
2023-01-20T10:32:32.200Z,96072.97
2023-01-20T10:35:04.148Z,96068.97
2023-01-20T10:37:32.909Z,96068.50
2023-01-20T10:40:08.674Z,96077.47
2023-01-20T10:42:36.945Z,96076.00
2023-01-20T10:45:09.769Z,96084.25
2023-01-20T10:47:45.208Z,96074.91
2023-01-20T10:50:33.590Z,96073.53
2023-01-20T10:53:36.659Z,96080.09
2023-01-20T10:56:17.769Z,96068.16
2023-01-20T10:58:47.655Z,96078.44
2023-01-20T11:01:18.977Z,96069.63
2023-01-20T11:03:49.713Z,96070.97
2023-01-20T11:06:19.563Z,96072.88
2023-01-20T11:08:47.787Z,96066.31
2023-01-20T11:11:20.032Z,96073.47
2023-01-20T11:13:48.550Z,96071.88
2023-01-20T11:16:20.059Z,96077.22
2023-01-20T11:18:57.030Z,96070.00
2023-01-20T11:21:26.627Z,96082.06
2023-01-20T11:23:56.830Z,96078.78
2023-01-20T11:26:28.677Z,96079.91
2023-01-20T11:28:58.892Z,96079.09
2023-01-20T11:31:41.564Z,96071.34
2023-01-20T11:34:22.636Z,96080.81
2023-01-20T11:36:51.293Z,96080.81
2023-01-20T11:39:30.590Z,96086.25
2023-01-20T11:42:16.916Z,96090.16
2023-01-20T11:44:45.540Z,96082.09
2023-01-20T11:47:24.821Z,96082.69
2023-01-20T11:50:27.693Z,96084.94
2023-01-20T11:53:13.342Z,96082.25
2023-01-20T11:55:50.315Z,96083.56
2023-01-20T11:58:23.169Z,96082.66
2023-01-20T12:00:53.362Z,96081.03
2023-01-20T12:03:49.996Z,96085.69
2023-01-20T12:06:20.475Z,96081.56
2023-01-20T12:08:51.405Z,96083.47
2023-01-20T12:11:24.730Z,96081.63
2023-01-20T12:14:23.210Z,96073.97
2023-01-20T12:17:07.666Z,96079.34
2023-01-20T12:19:42.093Z,96081.63
2023-01-20T12:22:13.515Z,96079.34
2023-01-20T12:25:01.829Z,96080.94
2023-01-20T12:27:30.169Z,96085.88
2023-01-20T12:30:03.427Z,96092.44
2023-01-20T12:32:33.301Z,96078.53
2023-01-20T12:35:01.697Z,96081.38
2023-01-20T12:37:34.782Z,96098.97
2023-01-20T12:40:14.432Z,96085.09
2023-01-20T12:43:11.198Z,96099.00
2023-01-20T12:45:56.977Z,96093.09
2023-01-20T12:48:33.223Z,96092.09
2023-01-20T12:51:15.897Z,96096.94
2023-01-20T12:53:56.725Z,96103.72
2023-01-20T12:56:31.385Z,96105.31
2023-01-20T12:59:06.011Z,96110.84
2023-01-20T13:01:47.167Z,96101.72
2023-01-20T13:04:54.017Z,96099.88
2023-01-20T13:07:42.523Z,96100.09
2023-01-20T13:10:18.760Z,96100.34
2023-01-20T13:12:53.886Z,96100.38
2023-01-20T13:15:26.363Z,96099.53
2023-01-20T13:18:15.054Z,96110.41
2023-01-20T13:20:45.596Z,96102.44
2023-01-20T13:23:16.010Z,96116.31
2023-01-20T13:25:46.329Z,96104.59
2023-01-20T13:28:18.737Z,96116.66
2023-01-20T13:30:51.067Z,96114.19
2023-01-20T13:33:32.199Z,96118.44
2023-01-20T13:36:01.606Z,96126.28
2023-01-20T13:38:33.276Z,96123.94
2023-01-20T13:41:06.055Z,96127.50
2023-01-20T13:43:54.030Z,96129.03
2023-01-20T13:46:48.163Z,96127.25
2023-01-20T13:49:25.873Z,96130.13
2023-01-20T13:51:54.218Z,96138.16
2023-01-20T13:54:48.254Z,96134.28
2023-01-20T13:57:46.430Z,96146.34
2023-01-20T14:00:16.954Z,96142.31
2023-01-20T14:02:45.922Z,96146.28
2023-01-20T14:05:31.033Z,96151.75
2023-01-20T14:07:59.860Z,96144.16
2023-01-20T14:10:28.954Z,96153.06
2023-01-20T14:12:57.270Z,96158.41
2023-01-20T14:15:33.163Z,96154.91
2023-01-20T14:18:01.892Z,96158.31
2023-01-20T14:20:31.821Z,96160.16
2023-01-20T14:23:26.156Z,96161.84
2023-01-20T14:26:10.046Z,96162.59
2023-01-20T14:28:49.529Z,96169.56
2023-01-20T14:31:23.371Z,96166.84
2023-01-20T14:33:57.441Z,96178.56
2023-01-20T14:36:28.479Z,96177.81
2023-01-20T14:38:58.766Z,96182.41
2023-01-20T14:41:33.124Z,96179.03
2023-01-20T14:44:02.565Z,96180.81
2023-01-20T14:46:32.852Z,96191.44
2023-01-20T14:49:01.742Z,96185.50
2023-01-20T14:51:31.667Z,96194.47
2023-01-20T14:54:28.270Z,96191.13
2023-01-20T14:56:56.863Z,96205.25
2023-01-20T14:59:25.239Z,96202.34
2023-01-20T15:01:54.981Z,96207.31
2023-01-20T15:04:23.629Z,96210.72
2023-01-20T15:06:55.292Z,96213.06
2023-01-20T15:09:28.843Z,96217.44
2023-01-20T15:12:32.421Z,96219.47
2023-01-20T15:15:21.936Z,96207.84
2023-01-20T15:18:16.528Z,96212.94
2023-01-20T15:20:47.076Z,96217.69
2023-01-20T15:23:17.758Z,96219.50
2023-01-20T15:25:46.016Z,96217.69
2023-01-20T15:28:25.917Z,96226.50
2023-01-20T15:30:55.029Z,96228.47
2023-01-20T15:33:24.058Z,96229.34
2023-01-20T15:35:54.611Z,96226.69
2023-01-20T15:38:24.153Z,96227.47
2023-01-20T15:40:52.363Z,96234.31
2023-01-20T15:43:20.992Z,96233.56
2023-01-20T15:45:49.547Z,96233.16
2023-01-20T15:48:20.953Z,96239.56
2023-01-20T15:50:49.826Z,96241.41
2023-01-20T15:53:18.189Z,96244.75
2023-01-20T15:55:52.374Z,96241.84
2023-01-20T15:58:26.488Z,96248.09
2023-01-20T16:00:56.096Z,96256.78
2023-01-20T16:03:26.036Z,96244.47
2023-01-20T16:05:55.981Z,96250.53
2023-01-20T16:08:26.018Z,96260.09
2023-01-20T16:10:55.653Z,96256.03
2023-01-20T16:13:23.947Z,96257.72
2023-01-20T16:15:52.294Z,96260.94
2023-01-20T16:18:21.134Z,96258.22
2023-01-20T16:20:50.750Z,96256.69
2023-01-20T16:23:19.309Z,96261.34
2023-01-20T16:25:47.699Z,96267.41
2023-01-20T16:28:21.396Z,96262.00
2023-01-20T16:30:50.206Z,96264.50
2023-01-20T16:33:20.367Z,96265.19
2023-01-20T16:35:49.246Z,96263.75
2023-01-20T16:38:18.902Z,96271.47
2023-01-20T16:40:51.674Z,96278.78
2023-01-20T16:43:22.308Z,96274.41
2023-01-20T16:45:55.319Z,96274.97
2023-01-20T16:48:24.709Z,96287.78
2023-01-20T16:50:53.711Z,96286.72
2023-01-20T16:53:22.200Z,96281.13
2023-01-20T16:55:50.629Z,96283.50
2023-01-20T16:58:19.027Z,96294.81
2023-01-20T17:00:48.951Z,96290.50
2023-01-20T17:03:17.449Z,96296.13
2023-01-20T17:05:45.712Z,96298.75
2023-01-20T17:08:13.994Z,96296.59
2023-01-20T17:10:48.404Z,96302.81
2023-01-20T17:13:16.733Z,96298.72
2023-01-20T17:15:45.020Z,96308.28
2023-01-20T17:18:14.652Z,96315.91
2023-01-20T17:20:42.949Z,96309.16
2023-01-20T17:23:11.313Z,96310.31
2023-01-20T17:25:39.562Z,96318.78
2023-01-20T17:28:07.935Z,96317.66
2023-01-20T17:30:36.243Z,96323.03
2023-01-20T17:33:04.672Z,96322.91
2023-01-20T17:35:34.429Z,96327.81
2023-01-20T17:38:02.983Z,96327.06
2023-01-20T17:40:31.413Z,96328.09
2023-01-20T17:42:59.715Z,96328.50
2023-01-20T17:45:29.372Z,96325.41
2023-01-20T17:47:57.659Z,96334.00
2023-01-20T17:50:26.027Z,96339.72
2023-01-20T17:52:55.676Z,96340.72
2023-01-20T17:55:23.949Z,96338.56
2023-01-20T17:57:52.327Z,96345.88
2023-01-20T18:00:21.233Z,96347.34
2023-01-20T18:02:50.090Z,96338.38
2023-01-20T18:05:18.359Z,96343.00
2023-01-20T18:07:46.578Z,96348.94
2023-01-20T18:10:16.943Z,96346.53
2023-01-20T18:12:45.524Z,96350.53
2023-01-20T18:15:13.834Z,96357.28
2023-01-20T18:17:43.477Z,96361.13
2023-01-20T18:20:14.858Z,96358.41
2023-01-20T18:22:48.325Z,96356.78
2023-01-20T18:25:18.255Z,96363.00
2023-01-20T18:27:46.650Z,96366.72
2023-01-20T18:30:15.891Z,96369.84
2023-01-20T18:32:44.349Z,96365.06
2023-01-20T18:35:12.608Z,96365.16
2023-01-20T18:37:40.900Z,96370.13
2023-01-20T18:40:11.406Z,96370.16
2023-01-20T18:42:44.853Z,96377.88
2023-01-20T18:45:13.183Z,96360.28
2023-01-20T18:47:41.480Z,96375.09
2023-01-20T18:50:11.023Z,96373.47
2023-01-20T18:52:39.375Z,96373.06
2023-01-20T18:55:09.124Z,96367.31
2023-01-20T18:57:37.443Z,96374.22
2023-01-20T19:00:08.788Z,96378.81
2023-01-20T19:02:37.088Z,96378.19
2023-01-20T19:05:05.940Z,96377.19
2023-01-20T19:07:34.247Z,96380.94
2023-01-20T19:10:02.580Z,96384.50
2023-01-20T19:12:30.840Z,96378.72
2023-01-20T19:14:59.179Z,96388.47
2023-01-20T19:17:30.664Z,96388.28
2023-01-20T19:19:58.995Z,96391.09
2023-01-20T19:22:27.335Z,96383.63
2023-01-20T19:24:55.634Z,96386.94
2023-01-20T19:27:26.384Z,96394.19
2023-01-20T19:29:54.716Z,96391.63
2023-01-20T19:32:22.976Z,96386.81
2023-01-20T19:34:52.677Z,96393.22
2023-01-20T19:37:21.074Z,96398.50
2023-01-20T19:39:50.312Z,96396.41
2023-01-20T19:42:18.610Z,96405.50
2023-01-20T19:44:46.913Z,96411.59
2023-01-20T19:47:15.195Z,96401.13
2023-01-20T19:49:43.535Z,96409.50
2023-01-20T19:52:13.311Z,96410.75
2023-01-20T19:54:41.600Z,96401.69
2023-01-20T19:57:09.921Z,96409.19
2023-01-20T19:59:40.778Z,96410.47
2023-01-20T20:02:10.242Z,96418.19
2023-01-20T20:04:38.529Z,96414.91
2023-01-20T20:07:06.756Z,96425.69
2023-01-20T20:09:37.755Z,96423.94
2023-01-20T20:12:07.848Z,96420.72
2023-01-20T20:14:36.181Z,96426.78
2023-01-20T20:17:04.541Z,96428.25
2023-01-20T20:19:32.921Z,96421.00
2023-01-20T20:22:01.164Z,96433.03
2023-01-20T20:24:29.584Z,96435.38
2023-01-20T20:26:59.437Z,96426.34
2023-01-20T20:29:28.019Z,96433.50
2023-01-20T20:31:56.299Z,96433.00
2023-01-20T20:34:24.606Z,96428.81
2023-01-20T20:36:52.908Z,96435.94
2023-01-20T20:39:21.173Z,96438.72
2023-01-20T20:41:49.541Z,96433.94
2023-01-20T20:44:19.402Z,96435.56
2023-01-20T20:46:48.616Z,96438.03
2023-01-20T20:49:17.322Z,96435.06
2023-01-20T20:51:46.142Z,96438.06
2023-01-20T20:54:17.005Z,96435.88
2023-01-20T20:56:45.581Z,96443.00
2023-01-20T20:59:13.961Z,96447.03
2023-01-20T21:01:43.796Z,96450.13
2023-01-20T21:04:12.236Z,96446.97
2023-01-20T21:06:40.577Z,96440.78
2023-01-20T21:09:09.267Z,96443.63
2023-01-20T21:11:38.586Z,96437.84
2023-01-20T21:14:07.515Z,96439.78
2023-01-20T21:16:38.470Z,96437.19
2023-01-20T21:19:09.143Z,96445.41
2023-01-20T21:21:37.429Z,96444.63
2023-01-20T21:24:13.899Z,96448.44
2023-01-20T21:26:43.095Z,96443.59
2023-01-20T21:29:11.995Z,96440.06
2023-01-20T21:31:40.434Z,96443.94
2023-01-20T21:34:14.343Z,96450.44
2023-01-20T21:36:42.966Z,96452.50
2023-01-20T21:39:12.858Z,96454.66
2023-01-20T21:41:41.231Z,96445.50
2023-01-20T21:44:28.315Z,96449.44
2023-01-20T21:46:57.385Z,96450.50
2023-01-20T21:49:44.784Z,96450.59
2023-01-20T21:52:31.299Z,96450.84
2023-01-20T21:54:59.647Z,96450.88
2023-01-20T21:57:29.057Z,96453.06
2023-01-20T21:59:57.482Z,96463.53
2023-01-20T22:02:26.922Z,96452.63
2023-01-20T22:04:56.802Z,96460.66
2023-01-20T22:07:25.299Z,96461.09
2023-01-20T22:09:53.566Z,96465.88
2023-01-20T22:12:21.903Z,96468.53
2023-01-20T22:14:50.260Z,96470.09
2023-01-20T22:17:19.042Z,96476.50
2023-01-20T22:19:47.337Z,96469.94
2023-01-20T22:22:17.039Z,96473.38
2023-01-20T22:24:45.333Z,96475.16
2023-01-20T22:27:13.610Z,96482.19
2023-01-20T22:29:41.909Z,96474.38
2023-01-20T22:32:10.181Z,96481.59
2023-01-20T22:34:38.418Z,96478.22
2023-01-20T22:37:06.712Z,96482.00
2023-01-20T22:39:36.320Z,96484.56
2023-01-20T22:42:04.639Z,96480.78
2023-01-20T22:44:32.901Z,96483.44
2023-01-20T22:47:01.208Z,96480.31
2023-01-20T22:49:29.899Z,96483.50
2023-01-20T22:51:58.199Z,96487.22
2023-01-20T22:54:26.533Z,96494.47
2023-01-20T22:56:56.172Z,96490.81
2023-01-20T22:59:24.416Z,96502.81
2023-01-20T23:01:52.708Z,96497.91
2023-01-20T23:04:21.000Z,96499.03
2023-01-20T23:06:49.276Z,96496.63
2023-01-20T23:09:17.530Z,96492.47
2023-01-20T23:11:45.912Z,96495.31
2023-01-20T23:14:15.606Z,96498.84
2023-01-20T23:16:44.311Z,96498.34
2023-01-20T23:19:12.719Z,96495.94
2023-01-20T23:21:40.982Z,96501.63
2023-01-20T23:24:09.582Z,96498.28
2023-01-20T23:26:37.826Z,96506.09
2023-01-20T23:29:06.126Z,96497.81
2023-01-20T23:31:35.820Z,96491.19
2023-01-20T23:34:04.288Z,96488.41
2023-01-20T23:36:32.582Z,96495.25
2023-01-20T23:39:01.100Z,96495.09
2023-01-20T23:41:29.380Z,96488.78
2023-01-20T23:43:57.656Z,96491.22
2023-01-20T23:46:25.963Z,96497.69
2023-01-20T23:48:55.749Z,96496.34
2023-01-20T23:51:24.026Z,96498.28
2023-01-20T23:53:52.293Z,96502.97
2023-01-20T23:56:22.175Z,96493.91
2023-01-20T23:58:51.012Z,96501.75
